Time;durP1;ratioP1;P1;durP2;ratioP2;P2;SDS_P1;SDS_P2;PMS_P1;PMS_P2;Temp;Humidity;BMP_temperature;BMP_pressure;BME280_temperature;BME280_humidity;BME280_pressure;Samples;Min_cycle;Max_cycle;Signal;HPM_P1;HPM_P2
2023/07/06 00:00:25;;;;;;;102.93;74.22;;;26.80;99.90;;;;;;4999060;28;20137;-70
2023/07/06 00:02:52;;;;;;;156.55;118.57;;;26.80;99.90;;;;;;5016094;28;20018;-70
2023/07/06 00:05:22;;;;;;;172.45;112.32;;;26.70;99.90;;;;;;5013753;28;20541;-70
2023/07/06 00:07:49;;;;;;;57.85;38.55;;;26.80;99.90;;;;;;4996426;28;20026;-71
2023/07/06 00:10:15;;;;;;;36.33;24.92;;;27.00;99.90;;;;;;4996231;28;20053;-71
2023/07/06 00:12:42;;;;;;;34.10;23.73;;;27.00;99.90;;;;;;5004239;28;20068;-71
2023/07/06 00:15:09;;;;;;;37.22;25.02;;;27.00;99.90;;;;;;5006348;28;20407;-71
2023/07/06 00:17:35;;;;;;;36.00;24.65;;;27.00;99.90;;;;;;5005667;28;20468;-65
2023/07/06 00:20:10;;;;;;;37.20;25.45;;;27.10;99.90;;;;;;5004573;28;20049;-65
2023/07/06 00:22:36;;;;;;;58.25;42.05;;;26.80;99.90;;;;;;5005053;28;20026;-65
2023/07/06 00:25:04;;;;;;;40.40;24.10;;;26.80;99.90;;;;;;5003678;28;20021;-65
2023/07/06 00:27:31;;;;;;;34.53;22.60;;;27.20;99.90;;;;;;4995966;28;20412;-65
2023/07/06 00:30:15;;;;;;;30.25;22.75;;;26.80;99.90;;;;;;4995992;28;20033;-65
2023/07/06 00:32:42;;;;;;;32.70;21.80;;;27.10;99.90;;;;;;4996049;28;20076;-66
2023/07/06 00:35:10;;;;;;;28.25;21.33;;;26.80;99.90;;;;;;4995797;28;20415;-64
2023/07/06 00:37:38;;;;;;;34.03;22.27;;;27.00;99.90;;;;;;4995563;28;20116;-65
2023/07/06 00:40:09;;;;;;;32.20;22.58;;;26.90;99.90;;;;;;5006396;28;20466;-64
2023/07/06 00:42:36;;;;;;;29.63;22.33;;;26.80;99.90;;;;;;5005424;28;20445;-64
2023/07/06 00:45:03;;;;;;;28.42;23.50;;;26.90;99.90;;;;;;5003785;28;20022;-64
2023/07/06 00:47:33;;;;;;;34.95;23.50;;;27.00;99.90;;;;;;5005260;28;20033;-64
2023/07/06 00:50:07;;;;;;;130.60;94.15;;;26.90;99.90;;;;;;4995611;28;20053;-64
2023/07/06 00:52:36;;;;;;;76.78;54.05;;;27.00;99.90;;;;;;4995443;28;20042;-65
2023/07/06 00:55:06;;;;;;;70.07;49.10;;;27.20;99.90;;;;;;4995407;28;20030;-64
2023/07/06 00:57:34;;;;;;;65.28;49.75;;;27.10;99.90;;;;;;4995155;28;20472;-63
2023/07/06 01:00:04;;;;;;;42.42;31.83;;;27.10;99.90;;;;;;4995350;28;20027;-64
2023/07/06 01:02:31;;;;;;;135.90;111.90;;;27.30;99.90;;;;;;4995266;28;20399;-64
2023/07/06 01:04:58;;;;;;;179.13;155.70;;;27.10;99.90;;;;;;4995149;28;20391;-64
2023/07/06 01:07:27;;;;;;;475.30;370.27;;;27.00;99.90;;;;;;4995414;28;20030;-63
2023/07/06 01:09:53;;;;;;;177.27;130.63;;;27.30;99.90;;;;;;4995177;28;20442;-64
2023/07/06 01:12:21;;;;;;;225.07;137.57;;;27.20;99.90;;;;;;4995094;28;20030;-63
2023/07/06 01:14:48;;;;;;;109.15;75.20;;;27.60;99.90;;;;;;4995037;28;20047;-64
2023/07/06 01:17:26;;;;;;;135.25;80.95;;;27.20;99.90;;;;;;5013199;28;20030;-64
2023/07/06 01:20:04;;;;;;;102.28;67.18;;;27.60;99.90;;;;;;5014423;28;20082;-65
2023/07/06 01:23:10;;;;;;;710.17;588.58;;;27.40;99.90;;;;;;5014511;28;20462;-64
2023/07/06 01:25:46;;;;;;;43.85;29.95;;;27.30;99.90;;;;;;5014400;28;20029;-64
2023/07/06 01:28:19;;;;;;;46.20;37.58;;;27.70;99.90;;;;;;5014423;28;20157;-65
2023/07/06 01:31:05;;;;;;;51.30;37.58;;;27.60;99.90;;;;;;5014336;28;20079;-64
2023/07/06 01:33:43;;;;;;;46.38;32.63;;;27.70;99.90;;;;;;5014203;28;20022;-63
2023/07/06 01:36:26;;;;;;;43.97;32.75;;;27.80;99.90;;;;;;5008264;28;20022;-63
2023/07/06 01:39:12;;;;;;;49.13;36.95;;;27.80;99.90;;;;;;4997430;28;20061;-63
2023/07/06 01:41:40;;;;;;;35.50;29.38;;;27.60;99.90;;;;;;5004397;28;20461;-62
2023/07/06 01:44:12;;;;;;;35.75;26.15;;;27.70;99.90;;;;;;4999516;28;20394;-64
2023/07/06 01:46:45;;;;;;;32.83;26.02;;;27.60;99.90;;;;;;5010077;28;20033;-64
2023/07/06 01:49:12;;;;;;;37.22;28.38;;;27.70;99.90;;;;;;5004094;28;20038;-64
2023/07/06 01:51:59;;;;;;;45.50;31.45;;;28.00;99.90;;;;;;5002360;28;20403;-63
2023/07/06 01:54:36;;;;;;;56.40;38.22;;;28.00;99.90;;;;;;5002327;28;20033;-65
2023/07/06 01:57:07;;;;;;;72.28;50.70;;;27.70;99.90;;;;;;5004138;28;20090;-67
2023/07/06 01:59:37;;;;;;;51.88;36.83;;;27.80;99.90;;;;;;5003828;28;20018;-64
2023/07/06 02:02:07;;;;;;;40.65;32.65;;;28.00;99.90;;;;;;5014476;28;20052;-67
2023/07/06 02:04:37;;;;;;;33.88;27.20;;;27.90;99.90;;;;;;5002982;28;20061;-63
2023/07/06 02:07:06;;;;;;;452.10;294.15;;;28.10;99.90;;;;;;5006376;28;20100;-63
2023/07/06 02:09:41;;;;;;;193.98;140.35;;;28.00;99.90;;;;;;4994587;28;20038;-62
2023/07/06 02:12:08;;;;;;;119.07;89.68;;;28.20;99.90;;;;;;4994318;28;20026;-63
2023/07/06 02:14:34;;;;;;;50.92;34.70;;;28.30;99.90;;;;;;4994648;28;20030;-63
2023/07/06 02:17:03;;;;;;;84.95;53.55;;;28.10;99.90;;;;;;4996236;28;20507;-64
2023/07/06 02:19:30;;;;;;;141.82;94.60;;;28.50;99.90;;;;;;5002561;28;20034;-65
2023/07/06 02:21:56;;;;;;;140.00;88.88;;;28.30;99.90;;;;;;5004116;28;20021;-63
2023/07/06 02:24:23;;;;;;;47.75;32.38;;;28.40;99.90;;;;;;4994220;28;20033;-64
2023/07/06 02:26:49;;;;;;;53.47;37.40;;;28.30;99.90;;;;;;4994667;28;20038;-62
2023/07/06 02:29:16;;;;;;;45.20;30.55;;;28.60;99.90;;;;;;4993754;28;20423;-63
2023/07/06 02:31:46;;;;;;;46.28;29.42;;;28.40;99.90;;;;;;4994224;28;20034;-64
2023/07/06 02:34:13;;;;;;;46.20;29.92;;;28.70;99.90;;;;;;4994080;28;20034;-64
2023/07/06 02:36:39;;;;;;;43.00;29.17;;;28.50;99.90;;;;;;4993712;28;20030;-64
2023/07/06 02:39:06;;;;;;;37.45;25.40;;;28.50;99.90;;;;;;4993947;28;20460;-65
2023/07/06 02:41:33;;;;;;;35.08;24.00;;;28.60;99.90;;;;;;4993873;28;20116;-65
2023/07/06 02:43:59;;;;;;;35.63;24.70;;;28.70;99.90;;;;;;4993615;28;20062;-65
2023/07/06 02:46:26;;;;;;;35.13;25.63;;;28.70;99.90;;;;;;4993860;28;20019;-66
2023/07/06 02:48:52;;;;;;;32.63;25.10;;;28.70;99.90;;;;;;4994071;28;20030;-64
2023/07/06 02:51:22;;;;;;;38.65;27.10;;;28.90;99.90;;;;;;4993732;28;20053;-67
2023/07/06 02:53:48;;;;;;;37.92;28.77;;;28.90;99.90;;;;;;4994180;28;20491;-62
2023/07/06 02:56:15;;;;;;;32.10;23.83;;;28.80;99.90;;;;;;5001794;28;20033;-63
2023/07/06 02:58:42;;;;;;;30.38;21.77;;;28.80;99.90;;;;;;5008656;28;20509;-67
2023/07/06 03:01:08;;;;;;;27.00;20.58;;;28.80;99.90;;;;;;5004770;28;20027;-63
2023/07/06 03:03:35;;;;;;;31.13;23.45;;;28.90;99.90;;;;;;5002893;28;20097;-63
2023/07/06 03:06:02;;;;;;;30.67;21.60;;;28.90;99.90;;;;;;5003639;28;20022;-63
2023/07/06 03:08:29;;;;;;;26.88;19.52;;;29.00;99.90;;;;;;5003641;28;20061;-63
2023/07/06 03:10:56;;;;;;;25.77;18.50;;;29.10;99.90;;;;;;5006919;28;20044;-63
2023/07/06 03:13:28;;;;;;;28.52;18.35;;;29.10;99.90;;;;;;5010535;28;20170;-62
2023/07/06 03:15:58;;;;;;;24.77;18.70;;;29.10;99.90;;;;;;5010612;28;20113;-66
2023/07/06 03:18:26;;;;;;;22.45;15.05;;;29.10;99.90;;;;;;5008158;28;20061;-63
2023/07/06 03:20:53;;;;;;;22.00;15.50;;;29.20;99.90;;;;;;5006714;28;20033;-63
2023/07/06 03:23:21;;;;;;;23.52;17.15;;;29.30;99.90;;;;;;5007450;28;20392;-63
2023/07/06 03:25:52;;;;;;;18.67;15.20;;;29.20;99.90;;;;;;5007654;28;20022;-63
2023/07/06 03:28:20;;;;;;;23.05;14.02;;;29.40;99.90;;;;;;5007442;28;20021;-63
2023/07/06 03:30:53;;;;;;;20.27;14.35;;;29.60;99.90;;;;;;5005415;28;20105;-64
2023/07/06 03:33:19;;;;;;;22.70;16.20;;;29.60;99.90;;;;;;5005894;28;20033;-63
2023/07/06 03:35:46;;;;;;;19.30;14.65;;;29.60;99.90;;;;;;5007643;28;20092;-63
2023/07/06 03:38:12;;;;;;;25.77;14.98;;;29.80;99.90;;;;;;5006094;28;20050;-64
2023/07/06 03:40:39;;;;;;;713.00;590.95;;;29.90;99.90;;;;;;5008215;28;20021;-62
2023/07/06 03:43:06;;;;;;;23.25;13.35;;;29.70;99.90;;;;;;5008919;28;20033;-64
2023/07/06 03:45:33;;;;;;;23.08;15.05;;;29.70;99.90;;;;;;5010760;28;20022;-64
2023/07/06 03:47:59;;;;;;;24.40;15.07;;;29.90;99.90;;;;;;5015845;28;20033;-64
2023/07/06 03:50:26;;;;;;;22.60;14.18;;;29.80;99.90;;;;;;5016112;28;20022;-67
2023/07/06 03:52:52;;;;;;;26.23;15.95;;;29.80;99.90;;;;;;5016497;28;20020;-66
2023/07/06 03:55:24;;;;;;;24.95;15.60;;;30.00;99.90;;;;;;5016163;28;20022;-67
2023/07/06 03:57:50;;;;;;;25.23;14.70;;;30.30;99.90;;;;;;5016477;28;20118;-65
2023/07/06 04:00:21;;;;;;;24.00;16.35;;;30.10;99.90;;;;;;5010929;28;20252;-65
2023/07/06 04:02:53;;;;;;;26.60;17.42;;;30.10;99.90;;;;;;5006087;28;20022;-66
2023/07/06 04:05:25;;;;;;;12.30;9.27;;;30.30;99.90;;;;;;5005670;28;20356;-66
2023/07/06 04:07:53;;;;;;;12.23;7.75;;;30.30;99.90;;;;;;5005836;28;20026;-63
2023/07/06 04:10:22;;;;;;;9.82;7.38;;;30.40;99.90;;;;;;5005220;28;20022;-64
2023/07/06 04:12:50;;;;;;;16.35;7.93;;;30.30;99.90;;;;;;5005943;28;20014;-64
2023/07/06 04:15:17;;;;;;;9.20;6.53;;;30.20;99.90;;;;;;5004417;28;20022;-63
2023/07/06 04:17:48;;;;;;;6.05;3.55;;;30.40;99.90;;;;;;5003312;28;20033;-63
2023/07/06 04:20:26;;;;;;;3.08;2.47;;;30.50;99.90;;;;;;5015384;28;20507;-63
2023/07/06 04:22:55;;;;;;;3.15;2.25;;;30.50;99.90;;;;;;5015344;28;20558;-63
2023/07/06 04:25:26;;;;;;;8.90;6.82;;;30.50;99.90;;;;;;5015478;28;20026;-63
2023/07/06 04:27:53;;;;;;;11.25;7.50;;;30.60;99.90;;;;;;5015389;28;20040;-63
2023/07/06 04:30:20;;;;;;;11.93;7.00;;;30.60;99.90;;;;;;5009330;28;20034;-63
2023/07/06 04:32:49;;;;;;;12.65;8.45;;;30.60;99.90;;;;;;4996697;28;20109;-63
2023/07/06 04:35:19;;;;;;;14.30;10.10;;;30.60;99.90;;;;;;4995461;28;20092;-63
2023/07/06 04:37:46;;;;;;;19.35;11.75;;;30.70;99.90;;;;;;4995427;28;20026;-62
2023/07/06 04:40:17;;;;;;;11.02;8.40;;;30.70;99.90;;;;;;4995600;28;20435;-64
2023/07/06 04:42:47;;;;;;;9.85;6.10;;;30.80;99.90;;;;;;5026195;28;20057;-64
2023/07/06 04:45:15;;;;;;;12.63;7.97;;;30.80;99.90;;;;;;5034935;28;20025;-63
2023/07/06 04:47:44;;;;;;;12.48;7.00;;;30.90;99.90;;;;;;5034966;28;20482;-63
2023/07/06 04:50:17;;;;;;;7.47;5.90;;;30.90;99.90;;;;;;5034486;28;20029;-64
2023/07/06 04:52:46;;;;;;;9.50;6.60;;;30.90;99.90;;;;;;5035356;28;20025;-63
2023/07/06 04:55:13;;;;;;;8.18;6.13;;;30.90;99.90;;;;;;5035459;28;20029;-64
2023/07/06 04:57:39;;;;;;;10.50;6.30;;;30.90;99.90;;;;;;5034321;28;20393;-63
2023/07/06 05:00:24;;;;;;;10.25;7.45;;;31.10;99.90;;;;;;5034582;28;20056;-64
2023/07/06 05:02:52;;;;;;;10.88;5.85;;;31.20;99.90;;;;;;5028250;28;20122;-64
2023/07/06 05:05:19;;;;;;;8.50;5.50;;;31.30;99.90;;;;;;5005643;28;20029;-64
2023/07/06 05:07:46;;;;;;;7.72;5.28;;;31.40;99.90;;;;;;5014750;28;20071;-63
2023/07/06 05:10:14;;;;;;;9.48;6.22;;;31.50;99.90;;;;;;5014759;28;20018;-64
2023/07/06 05:12:42;;;;;;;10.73;5.90;;;31.50;99.90;;;;;;5015050;28;20030;-64
2023/07/06 05:15:09;;;;;;;7.95;5.45;;;31.30;99.90;;;;;;5014781;28;20502;-63
2023/07/06 05:17:37;;;;;;;8.57;5.63;;;31.50;99.90;;;;;;5014389;28;20382;-63
2023/07/06 05:20:06;;;;;;;9.88;6.35;;;31.70;99.90;;;;;;5010178;28;20085;-63
2023/07/06 05:22:39;;;;;;;7.68;6.00;;;31.90;99.90;;;;;;4994763;28;20018;-64
2023/07/06 05:25:08;;;;;;;8.15;5.80;;;31.90;99.90;;;;;;5003004;28;20018;-64
2023/07/06 05:27:35;;;;;;;8.30;6.45;;;31.70;99.90;;;;;;5008038;28;20072;-64
2023/07/06 05:30:03;;;;;;;8.73;7.30;;;31.70;99.90;;;;;;5014229;28;20029;-64
2023/07/06 05:32:30;;;;;;;9.93;8.55;;;31.60;99.90;;;;;;5013286;28;20026;-63
2023/07/06 05:34:56;;;;;;;16.58;9.50;;;31.60;99.90;;;;;;5014538;28;20080;-62
2023/07/06 05:37:23;;;;;;;12.38;9.93;;;31.60;99.90;;;;;;5014649;28;20030;-63
2023/07/06 05:39:50;;;;;;;13.77;9.15;;;31.60;99.90;;;;;;5014268;28;20510;-64
2023/07/06 05:42:17;;;;;;;12.77;9.52;;;31.60;99.90;;;;;;5014342;28;20025;-66
2023/07/06 05:44:45;;;;;;;13.05;8.82;;;31.60;99.90;;;;;;5014486;28;20478;-67
2023/07/06 05:47:12;;;;;;;20.52;8.85;;;31.60;99.90;;;;;;5014521;28;20030;-67
2023/07/06 05:49:39;;;;;;;13.07;7.15;;;31.60;99.90;;;;;;5014854;28;20030;-64
2023/07/06 05:52:06;;;;;;;15.18;6.47;;;31.60;99.90;;;;;;5014844;28;20049;-64
2023/07/06 05:54:33;;;;;;;8.45;5.57;;;31.60;99.90;;;;;;5013896;28;20026;-64
2023/07/06 05:57:02;;;;;;;7.18;4.60;;;31.60;99.90;;;;;;5010199;28;20610;-62
2023/07/06 05:59:30;;;;;;;8.48;5.07;;;31.60;99.90;;;;;;5003457;28;20037;-64
2023/07/06 06:01:59;;;;;;;7.10;4.38;;;31.60;99.90;;;;;;4995721;28;20034;-63
2023/07/06 06:04:26;;;;;;;8.40;5.43;;;31.60;99.90;;;;;;4993641;28;20378;-64
2023/07/06 06:06:56;;;;;;;9.07;4.88;;;31.60;99.90;;;;;;4995331;28;20035;-63
2023/07/06 06:09:25;;;;;;;7.38;4.22;;;31.60;99.90;;;;;;5000652;28;20588;-64
2023/07/06 06:11:53;;;;;;;8.90;4.60;;;31.60;99.90;;;;;;4995240;28;20042;-64
2023/07/06 06:14:20;;;;;;;7.78;4.68;;;31.60;99.90;;;;;;5010305;28;20030;-63
2023/07/06 06:16:47;;;;;;;7.68;4.60;;;31.60;99.90;;;;;;5001982;28;20060;-64
2023/07/06 06:19:14;;;;;;;11.80;4.63;;;31.70;99.90;;;;;;4997799;28;20356;-64
2023/07/06 06:21:41;;;;;;;7.43;5.18;;;31.70;99.90;;;;;;5001972;28;20036;-66
2023/07/06 06:24:09;;;;;;;12.93;5.40;;;31.80;99.90;;;;;;4999871;28;20026;-64
2023/07/06 06:26:36;;;;;;;8.38;6.18;;;31.90;99.90;;;;;;4994768;28;20030;-65
2023/07/06 06:29:03;;;;;;;10.18;6.90;;;32.00;99.90;;;;;;4994326;28;20450;-65
2023/07/06 06:31:32;;;;;;;7.80;6.20;;;32.10;99.90;;;;;;4994527;28;20120;-63
2023/07/06 06:33:58;;;;;;;7.18;4.97;;;32.10;99.90;;;;;;4994320;28;20045;-64
2023/07/06 06:36:25;;;;;;;7.13;4.22;;;32.30;99.90;;;;;;4993732;28;20030;-64
2023/07/06 06:38:51;;;;;;;9.07;4.85;;;32.30;99.90;;;;;;4994288;28;20037;-64
2023/07/06 06:41:18;;;;;;;7.70;4.68;;;32.40;99.90;;;;;;4993474;28;20054;-64
2023/07/06 06:43:45;;;;;;;8.38;5.32;;;32.50;99.90;;;;;;4994123;28;20545;-62
2023/07/06 06:46:13;;;;;;;7.95;5.13;;;32.50;99.90;;;;;;5001103;28;20080;-62
2023/07/06 06:48:47;;;;;;;8.13;5.70;;;32.50;99.90;;;;;;5006279;28;20022;-67
2023/07/06 06:51:14;;;;;;;6.90;5.28;;;32.50;99.90;;;;;;5009394;28;20050;-63
2023/07/06 06:53:40;;;;;;;8.40;5.90;;;32.50;99.90;;;;;;5006980;28;20555;-62
2023/07/06 06:56:09;;;;;;;8.48;5.80;;;32.40;99.90;;;;;;5007740;28;20356;-64
2023/07/06 06:58:37;;;;;;;10.50;5.55;;;32.40;99.90;;;;;;5015741;28;20501;-64
2023/07/06 07:01:06;;;;;;;7.55;5.80;;;32.40;99.90;;;;;;5006190;28;20023;-65
2023/07/06 07:03:34;;;;;;;8.50;5.32;;;32.30;99.90;;;;;;5007075;28;20439;-64
2023/07/06 07:06:11;;;;;;;10.98;6.03;;;32.40;99.90;;;;;;5009202;28;20231;-64
2023/07/06 07:08:41;;;;;;;14.18;7.10;;;32.50;99.90;;;;;;5008106;28;20022;-64
2023/07/06 07:11:07;;;;;;;8.63;6.70;;;32.60;99.90;;;;;;5007705;28;20544;-65
2023/07/06 07:13:35;;;;;;;10.52;6.72;;;32.70;99.90;;;;;;5006925;28;20050;-65
2023/07/06 07:16:02;;;;;;;9.38;7.28;;;32.70;99.90;;;;;;5005598;28;20027;-65
2023/07/06 07:18:29;;;;;;;14.05;7.22;;;32.60;99.90;;;;;;5007630;28;20029;-66
2023/07/06 07:20:56;;;;;;;10.40;7.22;;;32.70;99.90;;;;;;5007183;28;20029;-67
2023/07/06 07:23:24;;;;;;;535.80;430.65;;;32.60;99.90;;;;;;5005633;28;20109;-67
2023/07/06 07:25:51;;;;;;;11.82;7.45;;;32.50;99.90;;;;;;5014412;28;20049;-65
2023/07/06 07:28:19;;;;;;;19.17;11.20;;;32.40;99.90;;;;;;5009649;28;20084;-66
2023/07/06 07:30:58;;;;;;;18.58;11.48;;;32.30;99.90;;;;;;5008267;28;20033;-66
2023/07/06 07:33:27;;;;;;;18.70;11.85;;;32.30;99.90;;;;;;5008089;28;20026;-63
2023/07/06 07:35:54;;;;;;;19.33;13.23;;;32.20;99.90;;;;;;5006315;28;20398;-67
2023/07/06 07:38:21;;;;;;;21.65;14.13;;;32.20;99.90;;;;;;5007408;28;20025;-66
2023/07/06 07:41:08;;;;;;;20.55;14.15;;;32.10;99.90;;;;;;4994611;28;20044;-65
2023/07/06 07:43:36;;;;;;;24.33;15.25;;;32.10;99.90;;;;;;5007377;28;20022;-66
2023/07/06 07:46:05;;;;;;;32.20;17.20;;;32.10;99.90;;;;;;5009672;28;20080;-64
2023/07/06 07:48:38;;;;;;;29.85;17.77;;;32.00;99.90;;;;;;5005852;28;20026;-63
2023/07/06 07:51:09;;;;;;;34.67;20.08;;;32.00;99.90;;;;;;5004894;28;20046;-66
2023/07/06 07:53:38;;;;;;;31.92;20.02;;;32.00;99.90;;;;;;5007997;28;20430;-64
2023/07/06 07:56:06;;;;;;;28.40;17.90;;;32.00;99.90;;;;;;5003863;28;20073;-65
2023/07/06 07:58:35;;;;;;;32.25;18.20;;;31.90;99.90;;;;;;5006055;28;20113;-65
2023/07/06 08:01:07;;;;;;;41.90;22.98;;;31.80;99.90;;;;;;5009890;28;20053;-64
2023/07/06 08:03:36;;;;;;;39.63;24.23;;;31.80;99.90;;;;;;5016025;28;20029;-66
2023/07/06 08:06:06;;;;;;;43.47;23.77;;;31.70;99.90;;;;;;5008805;28;20117;-66
2023/07/06 08:08:34;;;;;;;35.08;23.63;;;31.60;99.90;;;;;;5004169;28;20118;-67
2023/07/06 08:11:03;;;;;;;40.35;25.50;;;31.60;99.90;;;;;;5006314;28;20030;-66
2023/07/06 08:13:30;;;;;;;34.47;22.90;;;31.60;99.90;;;;;;5006597;28;20037;-66
2023/07/06 08:15:56;;;;;;;31.20;19.52;;;31.50;99.90;;;;;;5010501;28;20037;-66
2023/07/06 08:18:25;;;;;;;29.95;18.13;;;31.50;99.90;;;;;;5016654;28;20022;-66
2023/07/06 08:20:54;;;;;;;30.92;19.75;;;31.40;99.90;;;;;;5015633;28;20029;-66
2023/07/06 08:23:22;;;;;;;30.00;19.73;;;31.30;99.90;;;;;;5006734;28;20080;-65
2023/07/06 08:25:52;;;;;;;59.75;33.53;;;31.20;99.90;;;;;;5008089;28;20400;-66
2023/07/06 08:28:22;;;;;;;36.13;22.88;;;30.90;99.90;;;;;;5004990;28;20021;-66
2023/07/06 08:30:49;;;;;;;50.10;33.08;;;30.70;99.90;;;;;;5010668;28;20014;-65
2023/07/06 08:33:16;;;;;;;57.70;34.17;;;30.60;99.90;;;;;;5009964;28;20097;-63
2023/07/06 08:35:44;;;;;;;46.72;28.40;;;30.50;99.90;;;;;;5008124;28;20034;-66
2023/07/06 08:38:12;;;;;;;42.10;24.30;;;30.50;99.90;;;;;;5008249;28;20117;-65
2023/07/06 08:40:40;;;;;;;31.80;21.63;;;30.30;99.90;;;;;;5007376;28;20029;-66
2023/07/06 08:43:20;;;;;;;23.15;18.40;;;30.30;99.90;;;;;;5006525;28;20076;-66
2023/07/06 08:45:52;;;;;;;32.88;18.25;;;30.10;99.90;;;;;;5005573;28;20018;-65
2023/07/06 08:48:25;;;;;;;19.65;16.50;;;30.00;99.90;;;;;;5006543;28;20026;-66
2023/07/06 08:51:01;;;;;;;22.73;17.02;;;30.00;99.90;;;;;;5005687;28;20097;-65
2023/07/06 08:53:32;;;;;;;18.80;14.75;;;29.80;99.90;;;;;;5004012;28;20427;-64
2023/07/06 08:56:03;;;;;;;22.13;14.68;;;29.80;99.90;;;;;;5004568;28;20017;-65
2023/07/06 08:58:34;;;;;;;20.52;15.60;;;29.90;99.90;;;;;;5006211;28;20352;-65
2023/07/06 09:01:10;;;;;;;19.50;14.15;;;29.90;99.90;;;;;;5005567;28;20014;-65
2023/07/06 09:03:46;;;;;;;19.70;12.52;;;29.80;99.90;;;;;;5005039;28;20029;-64
2023/07/06 09:06:18;;;;;;;22.42;13.50;;;29.80;99.90;;;;;;4997670;28;20384;-65
2023/07/06 09:08:48;;;;;;;18.15;13.55;;;29.80;99.90;;;;;;4999805;28;20124;-65
2023/07/06 09:11:15;;;;;;;22.00;15.60;;;29.90;99.90;;;;;;5002633;28;20030;-65
2023/07/06 09:13:46;;;;;;;22.20;17.67;;;29.90;99.90;;;;;;5013136;28;20037;-63
2023/07/06 09:16:19;;;;;;;26.35;19.30;;;30.00;99.90;;;;;;5002678;28;20033;-65
2023/07/06 09:18:47;;;;;;;28.83;22.33;;;30.00;99.90;;;;;;5010381;28;20030;-64
2023/07/06 09:21:17;;;;;;;26.70;20.40;;;30.00;99.90;;;;;;5009291;28;20018;-66
2023/07/06 09:23:46;;;;;;;33.10;22.45;;;29.90;99.90;;;;;;5009203;28;20022;-65
2023/07/06 09:26:22;;;;;;;24.98;20.83;;;30.00;99.90;;;;;;5010814;28;20034;-65
2023/07/06 09:28:51;;;;;;;27.10;21.58;;;29.90;99.90;;;;;;5007889;28;20034;-68
2023/07/06 09:31:21;;;;;;;24.45;20.75;;;29.90;99.90;;;;;;5010954;28;20049;-66
2023/07/06 09:33:49;;;;;;;29.67;21.85;;;30.00;99.90;;;;;;5013641;28;20030;-66
2023/07/06 09:36:22;;;;;;;30.15;21.23;;;30.10;99.90;;;;;;5014646;28;20057;-68
2023/07/06 09:38:48;;;;;;;24.92;19.63;;;30.20;99.90;;;;;;5014618;28;20430;-66
2023/07/06 09:41:27;;;;;;;34.97;23.73;;;30.20;99.90;;;;;;5014679;28;20088;-66
2023/07/06 09:43:58;;;;;;;48.03;34.03;;;30.20;99.90;;;;;;5014300;28;20088;-66
2023/07/06 09:46:33;;;;;;;47.30;32.22;;;30.10;99.90;;;;;;5014511;28;20065;-67
2023/07/06 09:48:59;;;;;;;33.28;24.55;;;30.30;99.90;;;;;;5012532;28;20129;-67
2023/07/06 09:51:41;;;;;;;27.52;22.52;;;30.10;99.90;;;;;;5005708;28;20041;-63
2023/07/06 09:54:15;;;;;;;32.30;24.38;;;30.30;99.90;;;;;;5014351;28;20026;-63
2023/07/06 09:56:43;;;;;;;71.25;51.17;;;30.30;99.90;;;;;;5014388;28;20037;-65
2023/07/06 09:59:11;;;;;;;63.97;48.95;;;30.20;99.90;;;;;;5014160;28;20079;-65
2023/07/06 10:01:46;;;;;;;87.05;69.50;;;30.10;99.90;;;;;;5014130;28;20538;-65
2023/07/06 10:04:44;;;;;;;87.72;65.80;;;30.30;99.90;;;;;;5008311;28;20054;-65
2023/07/06 10:07:25;;;;;;;33.65;25.00;;;30.40;99.90;;;;;;5013159;28;20526;-65
2023/07/06 10:10:06;;;;;;;98.70;71.82;;;30.20;99.90;;;;;;5008212;28;20034;-65
2023/07/06 10:12:44;;;;;;;32.92;25.20;;;30.30;99.90;;;;;;5006231;28;20041;-66
2023/07/06 10:15:46;;;;;;;22.90;17.83;;;30.30;99.90;;;;;;5010372;28;20734;-66
2023/07/06 10:18:24;;;;;;;;;;;30.30;99.90;;;;;;4993197;28;20030;-66
2023/07/06 10:20:58;;;;;;;23.77;16.95;;;30.30;99.90;;;;;;4993970;28;19913;-65
2023/07/06 10:23:40;;;;;;;20.15;17.38;;;30.30;99.90;;;;;;4994104;28;20038;-66
2023/07/06 10:26:29;;;;;;;53.50;42.83;;;30.40;99.90;;;;;;4993805;28;20030;-66
2023/07/06 10:29:09;;;;;;;46.85;32.67;;;30.40;99.90;;;;;;4996998;28;20402;-63
2023/07/06 10:31:44;;;;;;;24.95;17.75;;;30.30;99.90;;;;;;5004002;28;20037;-68
2023/07/06 10:34:31;;;;;;;59.70;44.50;;;30.30;99.90;;;;;;5008262;28;20026;-64
2023/07/06 10:37:01;;;;;;;35.30;28.35;;;30.40;99.90;;;;;;5006490;28;20069;-65
2023/07/06 10:39:28;;;;;;;27.90;20.30;;;30.40;99.90;;;;;;5008570;28;20022;-65
2023/07/06 10:42:19;;;;;;;27.77;17.85;;;30.50;99.90;;;;;;5010041;28;20072;-64
2023/07/06 10:44:50;;;;;;;23.73;17.13;;;30.50;99.90;;;;;;5006978;28;20037;-65
2023/07/06 10:47:39;;;;;;;25.95;19.05;;;30.50;99.90;;;;;;5005710;28;20108;-65
2023/07/06 10:50:08;;;;;;;27.88;20.83;;;30.40;99.90;;;;;;4993980;28;20038;-66
2023/07/06 10:52:59;;;;;;;31.77;21.92;;;30.40;99.90;;;;;;4996657;28;20070;-66
2023/07/06 10:55:34;;;;;;;130.05;81.28;;;30.40;99.90;;;;;;5002433;28;20476;-66
2023/07/06 10:58:21;;;;;;;54.15;33.85;;;30.30;99.90;;;;;;5011125;28;20117;-67
2023/07/06 11:00:49;;;;;;;54.67;36.15;;;30.30;99.90;;;;;;5013579;28;20539;-67
2023/07/06 11:03:20;;;;;;;65.57;42.97;;;30.30;99.90;;;;;;5004642;28;20023;-65
2023/07/06 11:06:05;;;;;;;229.82;157.18;;;30.30;99.90;;;;;;5002550;28;20076;-66
2023/07/06 11:09:03;;;;;;;102.53;66.45;;;30.20;99.90;;;;;;5000909;28;20061;-67
2023/07/06 11:11:33;;;;;;;84.82;59.58;;;30.20;99.90;;;;;;4996051;28;20117;-68
2023/07/06 11:14:18;;;;;;;111.55;75.97;;;30.20;99.90;;;;;;5002589;28;20030;-69
2023/07/06 11:17:02;;;;;;;62.22;38.60;;;30.10;99.90;;;;;;5010314;28;20045;-69
2023/07/06 11:19:37;;;;;;;49.40;36.53;;;30.00;99.90;;;;;;5007846;28;20526;-66
2023/07/06 11:22:09;;;;;;;77.15;45.35;;;30.00;99.90;;;;;;5006702;28;20511;-69
2023/07/06 11:24:42;;;;;;;63.17;42.17;;;29.90;99.90;;;;;;5002222;28;20034;-68
2023/07/06 11:27:18;;;;;;;55.45;38.08;;;29.90;99.90;;;;;;5005821;28;20045;-67
2023/07/06 11:29:47;;;;;;;224.73;165.40;;;29.80;99.90;;;;;;5009619;28;20038;-68
2023/07/06 11:32:18;;;;;;;47.00;33.95;;;29.90;99.90;;;;;;5008449;28;20025;-67
2023/07/06 11:35:00;;;;;;;52.17;37.22;;;29.90;99.90;;;;;;5013982;28;20028;-67
2023/07/06 11:37:45;;;;;;;118.45;84.20;;;29.80;99.90;;;;;;5002173;28;20026;-66
2023/07/06 11:40:15;;;;;;;69.18;44.45;;;29.90;99.90;;;;;;5006101;28;20022;-66
2023/07/06 11:42:50;;;;;;;64.63;41.25;;;29.80;99.90;;;;;;5013365;28;20065;-66
2023/07/06 11:45:33;;;;;;;105.18;72.78;;;29.80;99.90;;;;;;5011017;28;20072;-66
2023/07/06 11:48:13;;;;;;;37.70;28.65;;;29.70;99.90;;;;;;5007733;28;20041;-65
2023/07/06 11:50:40;;;;;;;41.40;23.23;;;29.60;99.90;;;;;;5003168;28;20388;-65
2023/07/06 11:56:19;;;;;;;29.25;20.77;;;29.70;99.90;;;;;;5012280;28;20412;-64
2023/07/06 12:04:09;;;;;;;32.50;24.90;;;29.60;99.90;;;;;;5006407;28;20038;-65
2023/07/06 12:06:37;;;;;;;33.05;24.95;;;29.50;99.90;;;;;;5002146;28;20287;-66
2023/07/06 12:09:07;;;;;;;29.27;23.65;;;29.50;99.90;;;;;;5007262;28;20046;-65
2023/07/06 12:11:37;;;;;;;22.40;17.83;;;29.40;99.90;;;;;;5004143;28;20034;-66
2023/07/06 12:14:09;;;;;;;22.80;15.93;;;29.30;99.90;;;;;;5006983;28;20057;-65
2023/07/06 12:16:45;;;;;;;23.73;14.52;;;29.30;99.90;;;;;;5009836;28;20034;-67
2023/07/06 12:19:17;;;;;;;16.30;12.60;;;29.30;99.90;;;;;;5009234;28;20040;-65
2023/07/06 12:21:52;;;;;;;;;;;29.10;99.90;;;;;;5008972;28;20066;-67
2023/07/06 12:24:26;;;;;;;21.50;15.52;;;29.10;99.90;;;;;;5006118;28;19905;-65
2023/07/06 12:26:57;;;;;;;26.23;15.18;;;29.10;99.90;;;;;;5004454;28;20038;-66
2023/07/06 12:29:29;;;;;;;20.67;15.20;;;29.00;99.90;;;;;;5013414;28;20486;-66
2023/07/06 12:32:07;;;;;;;20.37;14.10;;;28.90;99.90;;;;;;5011005;28;20498;-65
2023/07/06 12:34:37;;;;;;;64.95;50.65;;;28.90;99.90;;;;;;5010311;28;20025;-66
2023/07/06 12:37:04;;;;;;;22.42;14.45;;;29.00;99.90;;;;;;5009735;28;20395;-67
2023/07/06 12:39:38;;;;;;;18.50;13.68;;;28.80;99.90;;;;;;5013067;28;20025;-66
2023/07/06 12:42:06;;;;;;;18.77;12.98;;;28.90;99.90;;;;;;5046425;23;20065;-67
2023/07/06 12:44:34;;;;;;;15.13;12.15;;;28.90;99.90;;;;;;5033384;28;20029;-66
2023/07/06 12:47:40;;;;;;;18.80;13.00;;;28.90;99.90;;;;;;5033727;28;20017;-64
2023/07/06 12:50:15;;;;;;;50.40;43.47;;;28.80;99.90;;;;;;5030642;28;20172;-66
2023/07/06 12:52:45;;;;;;;20.55;12.93;;;28.80;99.90;;;;;;5034458;28;20017;-65
2023/07/06 12:55:16;;;;;;;22.80;13.63;;;28.90;99.90;;;;;;5037033;28;20018;-65
2023/07/06 12:57:44;;;;;;;19.93;14.37;;;28.90;99.90;;;;;;5037730;28;20105;-65